sensor_id;sensor_type;location;lat;lon;timestamp;pressure;altitude;pressure_sealevel;temperature;humidity
61128;BME280;47013;42.664;23.242;2023-03-16T00:02:03;93183.84;;;3.62;91.78
61128;BME280;47013;42.664;23.242;2023-03-16T00:04:29;93186.91;;;3.60;91.15
61128;BME280;47013;42.664;23.242;2023-03-16T00:06:55;93191.09;;;3.50;91.81
61128;BME280;47013;42.664;23.242;2023-03-16T00:09:21;93193.34;;;3.31;93.06
61128;BME280;47013;42.664;23.242;2023-03-16T00:11:55;93190.16;;;3.04;97.37
61128;BME280;47013;42.664;23.242;2023-03-16T00:14:21;93198.56;;;3.02;96.77
61128;BME280;47013;42.664;23.242;2023-03-16T00:16:47;93198.19;;;3.04;94.76
61128;BME280;47013;42.664;23.242;2023-03-16T00:19:12;93201.28;;;3.09;93.95
61128;BME280;47013;42.664;23.242;2023-03-16T00:21:37;93201.63;;;3.01;95.23
61128;BME280;47013;42.664;23.242;2023-03-16T00:24:03;93203.19;;;3.05;94.85
61128;BME280;47013;42.664;23.242;2023-03-16T00:26:28;93205.09;;;3.05;94.07
61128;BME280;47013;42.664;23.242;2023-03-16T00:28:54;93212.38;;;3.08;93.41
61128;BME280;47013;42.664;23.242;2023-03-16T00:31:19;93208.19;;;3.14;94.63
61128;BME280;47013;42.664;23.242;2023-03-16T00:33:45;93204.72;;;3.06;96.29
61128;BME280;47013;42.664;23.242;2023-03-16T00:36:10;93210.47;;;3.12;95.84
61128;BME280;47013;42.664;23.242;2023-03-16T00:38:38;93220.47;;;3.18;94.46
61128;BME280;47013;42.664;23.242;2023-03-16T00:41:06;93213.97;;;3.19;94.40
61128;BME280;47013;42.664;23.242;2023-03-16T00:43:33;93221.97;;;3.16;94.59
61128;BME280;47013;42.664;23.242;2023-03-16T00:46:10;93228.06;;;3.09;93.64
61128;BME280;47013;42.664;23.242;2023-03-16T00:48:39;93220.41;;;3.11;94.80
61128;BME280;47013;42.664;23.242;2023-03-16T00:51:07;93225.75;;;3.11;93.52
61128;BME280;47013;42.664;23.242;2023-03-16T00:53:35;93220.75;;;3.03;93.43
61128;BME280;47013;42.664;23.242;2023-03-16T00:56:02;93223.06;;;3.01;92.62
61128;BME280;47013;42.664;23.242;2023-03-16T00:58:29;93219.63;;;3.00;94.16
61128;BME280;47013;42.664;23.242;2023-03-16T01:01:03;93226.13;;;3.06;94.73
61128;BME280;47013;42.664;23.242;2023-03-16T01:03:30;93229.13;;;2.97;93.24
61128;BME280;47013;42.664;23.242;2023-03-16T01:05:55;93229.13;;;2.97;93.49
61128;BME280;47013;42.664;23.242;2023-03-16T01:08:25;93226.44;;;2.94;93.61
61128;BME280;47013;42.664;23.242;2023-03-16T01:10:53;93224.53;;;2.91;93.53
61128;BME280;47013;42.664;23.242;2023-03-16T01:13:18;93224.91;;;2.93;94.86
61128;BME280;47013;42.664;23.242;2023-03-16T01:15:44;93224.75;;;2.64;95.22
61128;BME280;47013;42.664;23.242;2023-03-16T01:18:10;93227.41;;;2.61;96.80
61128;BME280;47013;42.664;23.242;2023-03-16T01:20:38;93223.97;;;2.64;95.44
61128;BME280;47013;42.664;23.242;2023-03-16T01:23:03;93224.38;;;2.70;96.15
61128;BME280;47013;42.664;23.242;2023-03-16T01:25:29;93231.28;;;2.71;95.02
61128;BME280;47013;42.664;23.242;2023-03-16T01:27:54;93235.44;;;2.61;95.65
61128;BME280;47013;42.664;23.242;2023-03-16T01:30:19;93227.78;;;2.63;96.44
61128;BME280;47013;42.664;23.242;2023-03-16T01:32:45;93227.41;;;2.64;97.23
61128;BME280;47013;42.664;23.242;2023-03-16T01:35:10;93226.28;;;2.69;96.73
61128;BME280;47013;42.664;23.242;2023-03-16T01:37:36;93228.19;;;2.65;96.85
61128;BME280;47013;42.664;23.242;2023-03-16T01:40:02;93235.06;;;2.62;95.60
61128;BME280;47013;42.664;23.242;2023-03-16T01:42:31;93237.94;;;2.40;98.68
61128;BME280;47013;42.664;23.242;2023-03-16T01:44:59;93247.47;;;2.37;98.64
61128;BME280;47013;42.664;23.242;2023-03-16T01:47:30;93240.97;;;2.38;99.43
61128;BME280;47013;42.664;23.242;2023-03-16T01:50:03;93236.78;;;2.41;99.12
61128;BME280;47013;42.664;23.242;2023-03-16T01:52:33;93238.75;;;2.47;99.22
61128;BME280;47013;42.664;23.242;2023-03-16T01:55:05;93238.69;;;2.40;99.28
61128;BME280;47013;42.664;23.242;2023-03-16T01:57:39;93240.66;;;2.47;98.12
61128;BME280;47013;42.664;23.242;2023-03-16T02:00:15;93242.22;;;2.51;97.07
61128;BME280;47013;42.664;23.242;2023-03-16T02:02:49;93244.56;;;2.56;96.67
61128;BME280;47013;42.664;23.242;2023-03-16T02:05:35;93253.03;;;2.62;97.33
61128;BME280;47013;42.664;23.242;2023-03-16T02:08:04;93259.13;;;2.62;96.32
61128;BME280;47013;42.664;23.242;2023-03-16T02:10:30;93262.41;;;2.42;96.45
61128;BME280;47013;42.664;23.242;2023-03-16T02:12:57;93262.06;;;2.47;96.68
61128;BME280;47013;42.664;23.242;2023-03-16T02:15:23;93264.41;;;2.52;96.91
61128;BME280;47013;42.664;23.242;2023-03-16T02:17:49;93267.09;;;2.55;96.83
61128;BME280;47013;42.664;23.242;2023-03-16T02:22:59;93280.16;;;2.60;96.15
61128;BME280;47013;42.664;23.242;2023-03-16T02:25:39;93288.13;;;2.57;96.28
61128;BME280;47013;42.664;23.242;2023-03-16T02:28:30;93280.50;;;2.59;96.15
61128;BME280;47013;42.664;23.242;2023-03-16T02:30:56;93283.59;;;2.61;95.89
61128;BME280;47013;42.664;23.242;2023-03-16T02:33:22;93280.97;;;2.68;96.88
61128;BME280;47013;42.664;23.242;2023-03-16T02:35:48;93280.09;;;2.53;97.51
61128;BME280;47013;42.664;23.242;2023-03-16T02:38:14;93285.81;;;2.52;96.23
61128;BME280;47013;42.664;23.242;2023-03-16T02:40:39;93302.25;;;2.54;95.69
61128;BME280;47013;42.664;23.242;2023-03-16T02:43:15;93293.84;;;2.52;95.88
61128;BME280;47013;42.664;23.242;2023-03-16T02:45:50;93291.47;;;2.43;96.70
61128;BME280;47013;42.664;23.242;2023-03-16T02:48:27;93296.41;;;2.41;96.82
61128;BME280;47013;42.664;23.242;2023-03-16T02:50:56;93296.28;;;1.90;99.10
61128;BME280;47013;42.664;23.242;2023-03-16T02:53:22;93300.88;;;1.89;100.00
61128;BME280;47013;42.664;23.242;2023-03-16T02:55:48;93299.47;;;1.99;100.00
61128;BME280;47013;42.664;23.242;2023-03-16T02:58:14;93300.13;;;1.92;100.00
61128;BME280;47013;42.664;23.242;2023-03-16T03:00:40;93301.25;;;1.88;100.00
61128;BME280;47013;42.664;23.242;2023-03-16T03:03:06;93311.19;;;1.91;100.00
61128;BME280;47013;42.664;23.242;2023-03-16T03:05:34;93304.28;;;1.86;99.99
61128;BME280;47013;42.664;23.242;2023-03-16T03:07:59;93313.06;;;1.87;100.00
61128;BME280;47013;42.664;23.242;2023-03-16T03:10:25;93310.00;;;1.85;99.16
61128;BME280;47013;42.664;23.242;2023-03-16T03:12:51;93313.06;;;1.87;99.95
61128;BME280;47013;42.664;23.242;2023-03-16T03:15:17;93321.81;;;1.84;100.00
61128;BME280;47013;42.664;23.242;2023-03-16T03:17:45;93325.34;;;1.91;99.94
61128;BME280;47013;42.664;23.242;2023-03-16T03:20:11;93329.00;;;1.80;99.67
61128;BME280;47013;42.664;23.242;2023-03-16T03:22:46;93330.28;;;1.89;100.00
61128;BME280;47013;42.664;23.242;2023-03-16T03:25:13;93336.13;;;1.98;100.00
61128;BME280;47013;42.664;23.242;2023-03-16T03:27:41;93332.63;;;1.94;99.24
61128;BME280;47013;42.664;23.242;2023-03-16T03:30:08;93339.56;;;1.99;99.46
61128;BME280;47013;42.664;23.242;2023-03-16T03:32:34;93347.22;;;2.00;98.21
61128;BME280;47013;42.664;23.242;2023-03-16T03:34:59;93344.53;;;2.00;97.78
61128;BME280;47013;42.664;23.242;2023-03-16T03:37:25;93342.19;;;1.95;97.30
61128;BME280;47013;42.664;23.242;2023-03-16T03:39:50;93345.69;;;1.99;97.43
61128;BME280;47013;42.664;23.242;2023-03-16T03:42:17;93358.59;;;1.94;99.10
61128;BME280;47013;42.664;23.242;2023-03-16T03:44:43;93342.25;;;1.69;99.82
61128;BME280;47013;42.664;23.242;2023-03-16T03:47:08;93339.63;;;1.16;100.00
61128;BME280;47013;42.664;23.242;2023-03-16T03:49:34;93354.44;;;1.36;100.00
61128;BME280;47013;42.664;23.242;2023-03-16T03:52:00;93360.44;;;1.30;100.00
61128;BME280;47013;42.664;23.242;2023-03-16T03:54:28;93362.50;;;1.40;100.00
61128;BME280;47013;42.664;23.242;2023-03-16T03:56:54;93365.28;;;1.47;100.00
61128;BME280;47013;42.664;23.242;2023-03-16T03:59:19;93372.19;;;1.52;99.99
61128;BME280;47013;42.664;23.242;2023-03-16T04:01:45;93370.13;;;1.41;100.00
61128;BME280;47013;42.664;23.242;2023-03-16T04:04:10;93371.22;;;1.37;100.00
61128;BME280;47013;42.664;23.242;2023-03-16T04:06:36;93370.50;;;1.13;100.00
61128;BME280;47013;42.664;23.242;2023-03-16T04:09:01;93377.47;;;1.18;100.00
61128;BME280;47013;42.664;23.242;2023-03-16T04:11:26;93371.34;;;1.17;100.00
61128;BME280;47013;42.664;23.242;2023-03-16T04:13:52;93376.41;;;1.26;100.00
61128;BME280;47013;42.664;23.242;2023-03-16T04:16:18;93372.16;;;1.22;100.00
61128;BME280;47013;42.664;23.242;2023-03-16T04:18:44;93376.13;;;1.31;100.00
61128;BME280;47013;42.664;23.242;2023-03-16T04:21:14;93377.13;;;1.23;100.00
61128;BME280;47013;42.664;23.242;2023-03-16T04:23:40;93378.78;;;1.31;100.00
61128;BME280;47013;42.664;23.242;2023-03-16T04:26:06;93381.75;;;1.26;100.00
61128;BME280;47013;42.664;23.242;2023-03-16T04:28:32;93393.00;;;1.39;100.00
61128;BME280;47013;42.664;23.242;2023-03-16T04:31:02;93385.59;;;1.29;100.00
61128;BME280;47013;42.664;23.242;2023-03-16T04:33:37;93399.03;;;1.32;100.00
61128;BME280;47013;42.664;23.242;2023-03-16T04:36:04;93401.13;;;1.46;100.00
61128;BME280;47013;42.664;23.242;2023-03-16T04:38:32;93405.38;;;1.51;99.68
61128;BME280;47013;42.664;23.242;2023-03-16T04:41:01;93407.47;;;1.64;100.00
61128;BME280;47013;42.664;23.242;2023-03-16T04:43:27;93411.72;;;1.69;99.87
61128;BME280;47013;42.664;23.242;2023-03-16T04:45:52;93409.53;;;1.74;98.26
61128;BME280;47013;42.664;23.242;2023-03-16T04:48:18;93416.00;;;1.73;95.98
61128;BME280;47013;42.664;23.242;2023-03-16T04:50:44;93425.09;;;1.69;96.48
61128;BME280;47013;42.664;23.242;2023-03-16T04:53:09;93425.53;;;1.71;96.74
61128;BME280;47013;42.664;23.242;2023-03-16T04:55:35;93424.66;;;1.63;96.76
61128;BME280;47013;42.664;23.242;2023-03-16T04:58:00;93428.22;;;1.44;97.52
61128;BME280;47013;42.664;23.242;2023-03-16T05:00:26;93424.75;;;1.44;98.85
61128;BME280;47013;42.664;23.242;2023-03-16T05:02:52;93426.91;;;1.35;98.95
61128;BME280;47013;42.664;23.242;2023-03-16T05:05:18;93430.09;;;1.44;99.66
61128;BME280;47013;42.664;23.242;2023-03-16T05:07:44;93432.09;;;1.51;99.49
61128;BME280;47013;42.664;23.242;2023-03-16T05:10:11;93442.56;;;1.63;99.43
61128;BME280;47013;42.664;23.242;2023-03-16T05:12:37;93445.09;;;1.52;97.55
61128;BME280;47013;42.664;23.242;2023-03-16T05:15:04;93450.16;;;1.57;98.25
61128;BME280;47013;42.664;23.242;2023-03-16T05:17:30;93451.13;;;1.45;99.54
61128;BME280;47013;42.664;23.242;2023-03-16T05:19:55;93452.53;;;1.39;99.81
61128;BME280;47013;42.664;23.242;2023-03-16T05:22:20;93452.44;;;1.32;99.99
61128;BME280;47013;42.664;23.242;2023-03-16T05:24:46;93456.38;;;1.42;99.42
61128;BME280;47013;42.664;23.242;2023-03-16T05:27:11;93454.78;;;1.37;98.44
61128;BME280;47013;42.664;23.242;2023-03-16T05:29:36;93459.41;;;1.40;97.91
61128;BME280;47013;42.664;23.242;2023-03-16T05:32:02;93464.56;;;1.53;98.85
61128;BME280;47013;42.664;23.242;2023-03-16T05:34:28;93467.97;;;1.50;97.14
61128;BME280;47013;42.664;23.242;2023-03-16T05:36:53;93466.38;;;1.45;97.47
61128;BME280;47013;42.664;23.242;2023-03-16T05:39:19;93477.84;;;1.45;98.30
61128;BME280;47013;42.664;23.242;2023-03-16T05:41:44;93479.41;;;1.50;96.72
61128;BME280;47013;42.664;23.242;2023-03-16T05:44:09;93472.75;;;1.63;96.84
61128;BME280;47013;42.664;23.242;2023-03-16T05:46:36;93480.44;;;1.68;96.40
61128;BME280;47013;42.664;23.242;2023-03-16T05:49:02;93486.16;;;1.67;96.89
61128;BME280;47013;42.664;23.242;2023-03-16T05:51:28;93483.94;;;1.72;97.63
61128;BME280;47013;42.664;23.242;2023-03-16T05:53:54;93490.16;;;1.80;96.47
61128;BME280;47013;42.664;23.242;2023-03-16T05:56:24;93495.38;;;1.69;96.54
61128;BME280;47013;42.664;23.242;2023-03-16T05:58:54;93492.00;;;1.76;97.20
61128;BME280;47013;42.664;23.242;2023-03-16T06:01:20;93494.66;;;1.72;96.86
61128;BME280;47013;42.664;23.242;2023-03-16T06:03:47;93498.94;;;1.54;97.68
61128;BME280;47013;42.664;23.242;2023-03-16T06:06:17;93500.13;;;1.57;96.69
61128;BME280;47013;42.664;23.242;2023-03-16T06:08:43;93498.69;;;1.63;96.49
61128;BME280;47013;42.664;23.242;2023-03-16T06:11:09;93502.91;;;1.64;96.37
61128;BME280;47013;42.664;23.242;2023-03-16T06:13:36;93508.25;;;1.41;97.90
61128;BME280;47013;42.664;23.242;2023-03-16T06:16:01;93505.50;;;1.34;99.17
61128;BME280;47013;42.664;23.242;2023-03-16T06:18:27;93504.13;;;1.43;98.78
61128;BME280;47013;42.664;23.242;2023-03-16T06:20:52;93506.13;;;1.27;100.00
61128;BME280;47013;42.664;23.242;2023-03-16T06:23:18;93502.78;;;1.30;97.83
61128;BME280;47013;42.664;23.242;2023-03-16T06:25:46;93515.09;;;1.38;94.78
61128;BME280;47013;42.664;23.242;2023-03-16T06:28:12;93518.53;;;1.16;98.40
61128;BME280;47013;42.664;23.242;2023-03-16T06:30:38;93520.63;;;1.26;98.91
61128;BME280;47013;42.664;23.242;2023-03-16T06:33:04;93520.41;;;1.35;97.96
61128;BME280;47013;42.664;23.242;2023-03-16T06:35:29;93527.31;;;1.39;98.73
61128;BME280;47013;42.664;23.242;2023-03-16T06:37:55;93536.28;;;1.51;98.99
61128;BME280;47013;42.664;23.242;2023-03-16T06:40:21;93545.66;;;1.64;99.05
61128;BME280;47013;42.664;23.242;2023-03-16T06:42:46;93538.34;;;1.15;97.12
61128;BME280;47013;42.664;23.242;2023-03-16T06:45:12;93546.19;;;1.27;97.53
61128;BME280;47013;42.664;23.242;2023-03-16T06:47:37;93545.19;;;1.35;97.94
61128;BME280;47013;42.664;23.242;2023-03-16T06:50:03;93551.91;;;1.48;96.64
61128;BME280;47013;42.664;23.242;2023-03-16T06:52:29;93552.72;;;1.53;96.63
61128;BME280;47013;42.664;23.242;2023-03-16T06:54:54;93558.56;;;1.35;95.47
61128;BME280;47013;42.664;23.242;2023-03-16T06:57:20;93559.34;;;1.59;97.24
61128;BME280;47013;42.664;23.242;2023-03-16T06:59:45;93565.25;;;1.71;94.95
61128;BME280;47013;42.664;23.242;2023-03-16T07:02:11;93560.31;;;1.73;93.60
61128;BME280;47013;42.664;23.242;2023-03-16T07:04:38;93567.25;;;1.78;92.57
61128;BME280;47013;42.664;23.242;2023-03-16T07:07:03;93582.38;;;1.93;100.00
61128;BME280;47013;42.664;23.242;2023-03-16T07:09:29;93571.75;;;2.23;100.00
61128;BME280;47013;42.664;23.242;2023-03-16T07:11:54;93584.78;;;2.55;100.00
61128;BME280;47013;42.664;23.242;2023-03-16T07:14:20;93579.22;;;2.11;92.60
61128;BME280;47013;42.664;23.242;2023-03-16T07:16:47;93581.72;;;2.00;92.26
61128;BME280;47013;42.664;23.242;2023-03-16T07:19:13;93584.50;;;2.07;93.82
61128;BME280;47013;42.664;23.242;2023-03-16T07:21:38;93591.50;;;2.15;94.07
61128;BME280;47013;42.664;23.242;2023-03-16T07:24:14;93594.22;;;1.92;93.37
61128;BME280;47013;42.664;23.242;2023-03-16T07:26:42;93592.47;;;2.03;95.27
61128;BME280;47013;42.664;23.242;2023-03-16T07:29:08;93594.19;;;2.15;94.84
61128;BME280;47013;42.664;23.242;2023-03-16T07:31:34;93595.00;;;2.19;93.07
61128;BME280;47013;42.664;23.242;2023-03-16T07:34:08;93597.78;;;2.26;91.28
61128;BME280;47013;42.664;23.242;2023-03-16T07:36:34;93600.53;;;2.07;92.22
61128;BME280;47013;42.664;23.242;2023-03-16T07:38:59;93605.47;;;2.05;93.01
61128;BME280;47013;42.664;23.242;2023-03-16T07:41:25;93604.72;;;2.04;90.02
61128;BME280;47013;42.664;23.242;2023-03-16T07:43:51;93600.13;;;2.05;90.58
61128;BME280;47013;42.664;23.242;2023-03-16T07:46:17;93608.16;;;2.05;90.19
61128;BME280;47013;42.664;23.242;2023-03-16T07:48:43;93610.09;;;2.08;93.00
61128;BME280;47013;42.664;23.242;2023-03-16T07:51:10;93612.06;;;2.11;92.98
61128;BME280;47013;42.664;23.242;2023-03-16T07:53:36;93615.34;;;2.01;92.76
61128;BME280;47013;42.664;23.242;2023-03-16T07:56:02;93619.34;;;2.11;92.97
61128;BME280;47013;42.664;23.242;2023-03-16T07:58:27;93613.91;;;2.07;91.82
61128;BME280;47013;42.664;23.242;2023-03-16T08:00:57;93614.44;;;2.16;93.44
61128;BME280;47013;42.664;23.242;2023-03-16T08:03:23;93622.06;;;2.14;90.77
61128;BME280;47013;42.664;23.242;2023-03-16T08:05:49;93613.66;;;2.16;92.46
61128;BME280;47013;42.664;23.242;2023-03-16T08:08:16;93624.22;;;2.31;93.09
61128;BME280;47013;42.664;23.242;2023-03-16T08:10:41;93613.16;;;2.33;93.91
61128;BME280;47013;42.664;23.242;2023-03-16T08:13:06;93625.13;;;2.16;90.85
61128;BME280;47013;42.664;23.242;2023-03-16T08:15:32;93626.38;;;2.22;89.76
61128;BME280;47013;42.664;23.242;2023-03-16T08:17:58;93625.47;;;2.38;91.52
61128;BME280;47013;42.664;23.242;2023-03-16T08:20:27;93627.09;;;2.46;88.65
61128;BME280;47013;42.664;23.242;2023-03-16T08:22:52;93634.91;;;2.58;89.82
61128;BME280;47013;42.664;23.242;2023-03-16T08:25:17;93640.56;;;2.53;90.56
61128;BME280;47013;42.664;23.242;2023-03-16T08:27:44;93645.69;;;2.61;89.69
61128;BME280;47013;42.664;23.242;2023-03-16T08:30:11;93638.09;;;2.41;88.75
61128;BME280;47013;42.664;23.242;2023-03-16T08:32:37;93643.63;;;2.51;89.36
61128;BME280;47013;42.664;23.242;2023-03-16T08:35:08;93646.81;;;2.60;90.16
61128;BME280;47013;42.664;23.242;2023-03-16T08:37:34;93650.38;;;2.72;88.63
61128;BME280;47013;42.664;23.242;2023-03-16T08:40:00;93647.56;;;2.87;91.25
61128;BME280;47013;42.664;23.242;2023-03-16T08:42:25;93642.31;;;2.98;90.36
61128;BME280;47013;42.664;23.242;2023-03-16T08:44:53;93656.19;;;3.07;87.17
61128;BME280;47013;42.664;23.242;2023-03-16T08:47:20;93649.13;;;2.92;85.49
61128;BME280;47013;42.664;23.242;2023-03-16T08:49:46;93650.31;;;2.38;86.78
61128;BME280;47013;42.664;23.242;2023-03-16T08:52:11;93656.72;;;2.60;86.97
61128;BME280;47013;42.664;23.242;2023-03-16T08:54:37;93662.94;;;2.67;86.70
61128;BME280;47013;42.664;23.242;2023-03-16T08:57:03;93662.13;;;2.63;85.07
61128;BME280;47013;42.664;23.242;2023-03-16T08:59:28;93661.09;;;2.72;86.55
61128;BME280;47013;42.664;23.242;2023-03-16T09:01:54;93656.63;;;2.79;86.01
61128;BME280;47013;42.664;23.242;2023-03-16T09:04:20;93654.16;;;2.67;85.35
61128;BME280;47013;42.664;23.242;2023-03-16T09:06:46;93658.13;;;2.77;87.46
61128;BME280;47013;42.664;23.242;2023-03-16T09:09:12;93663.19;;;2.85;86.50
61128;BME280;47013;42.664;23.242;2023-03-16T09:11:38;93658.31;;;2.91;84.56
61128;BME280;47013;42.664;23.242;2023-03-16T09:14:04;93660.22;;;2.90;84.49
61128;BME280;47013;42.664;23.242;2023-03-16T09:16:31;93672.41;;;2.88;83.10
61128;BME280;47013;42.664;23.242;2023-03-16T09:18:56;93660.94;;;2.87;84.23
61128;BME280;47013;42.664;23.242;2023-03-16T09:21:22;93668.59;;;2.89;83.16
61128;BME280;47013;42.664;23.242;2023-03-16T09:23:48;93667.31;;;2.79;84.48
61128;BME280;47013;42.664;23.242;2023-03-16T09:26:13;93673.88;;;2.85;84.82
61128;BME280;47013;42.664;23.242;2023-03-16T09:28:40;93670.88;;;2.87;84.13
61128;BME280;47013;42.664;23.242;2023-03-16T09:31:06;93669.41;;;2.93;84.23
61128;BME280;47013;42.664;23.242;2023-03-16T09:33:34;93668.78;;;3.03;85.54
61128;BME280;47013;42.664;23.242;2023-03-16T09:36:00;93669.63;;;3.11;85.85
61128;BME280;47013;42.664;23.242;2023-03-16T09:38:26;93664.34;;;3.14;85.39
61128;BME280;47013;42.664;23.242;2023-03-16T09:40:58;93669.41;;;3.23;84.47
61128;BME280;47013;42.664;23.242;2023-03-16T09:46:16;93680.88;;;3.23;85.40
61128;BME280;47013;42.664;23.242;2023-03-16T09:48:45;93680.56;;;3.29;86.51
61128;BME280;47013;42.664;23.242;2023-03-16T09:53:59;93682.66;;;3.42;87.20
61128;BME280;47013;42.664;23.242;2023-03-16T09:56:31;93679.06;;;3.31;85.88
61128;BME280;47013;42.664;23.242;2023-03-16T09:58:57;93677.56;;;3.34;87.64
61128;BME280;47013;42.664;23.242;2023-03-16T10:07:25;93688.00;;;2.82;90.19
61128;BME280;47013;42.664;23.242;2023-03-16T10:10:00;93692.00;;;2.65;90.29
61128;BME280;47013;42.664;23.242;2023-03-16T10:12:36;93688.69;;;2.76;89.52
61128;BME280;47013;42.664;23.242;2023-03-16T10:15:07;93682.88;;;2.70;90.40
61128;BME280;47013;42.664;23.242;2023-03-16T10:20:12;93679.00;;;2.15;92.85
61128;BME280;47013;42.664;23.242;2023-03-16T10:22:43;93679.25;;;1.83;91.72
61128;BME280;47013;42.664;23.242;2023-03-16T10:27:41;93687.91;;;2.22;94.32
61128;BME280;47013;42.664;23.242;2023-03-16T10:30:26;93682.00;;;2.36;93.78
61128;BME280;47013;42.664;23.242;2023-03-16T10:32:53;93686.63;;;2.39;93.01
61128;BME280;47013;42.664;23.242;2023-03-16T10:37:58;93682.47;;;2.68;93.35
61128;BME280;47013;42.664;23.242;2023-03-16T10:40:24;93680.75;;;2.56;91.79
61128;BME280;47013;42.664;23.242;2023-03-16T10:42:50;93689.97;;;2.59;91.36
61128;BME280;47013;42.664;23.242;2023-03-16T10:45:23;93686.31;;;2.71;88.32
61128;BME280;47013;42.664;23.242;2023-03-16T10:47:49;93679.47;;;2.73;89.91
61128;BME280;47013;42.664;23.242;2023-03-16T10:50:15;93681.22;;;2.88;90.03
61128;BME280;47013;42.664;23.242;2023-03-16T10:52:45;93685.44;;;2.89;89.31
61128;BME280;47013;42.664;23.242;2023-03-16T10:55:28;93684.75;;;2.96;88.52
61128;BME280;47013;42.664;23.242;2023-03-16T10:57:56;93681.69;;;2.97;89.49
61128;BME280;47013;42.664;23.242;2023-03-16T11:00:33;93680.22;;;3.00;86.32
61128;BME280;47013;42.664;23.242;2023-03-16T11:03:12;93683.78;;;3.11;86.73
61128;BME280;47013;42.664;23.242;2023-03-16T11:05:54;93686.94;;;3.17;87.05
61128;BME280;47013;42.664;23.242;2023-03-16T11:08:24;93685.06;;;3.21;85.93
61128;BME280;47013;42.664;23.242;2023-03-16T11:10:59;93686.19;;;3.20;82.44
61128;BME280;47013;42.664;23.242;2023-03-16T11:13:35;93692.38;;;3.24;84.58
61128;BME280;47013;42.664;23.242;2023-03-16T11:18:59;93694.28;;;3.23;83.73
61128;BME280;47013;42.664;23.242;2023-03-16T11:22:04;93692.25;;;3.13;85.33
61128;BME280;47013;42.664;23.242;2023-03-16T11:30:23;93692.53;;;3.05;84.27
61128;BME280;47013;42.664;23.242;2023-03-16T11:32:51;93692.13;;;3.03;84.62
61128;BME280;47013;42.664;23.242;2023-03-16T11:38:37;93683.75;;;3.08;85.86
61128;BME280;47013;42.664;23.242;2023-03-16T11:41:10;93692.59;;;3.12;83.97
61128;BME280;47013;42.664;23.242;2023-03-16T11:43:49;93687.25;;;3.12;84.39
61128;BME280;47013;42.664;23.242;2023-03-16T11:47:04;93689.47;;;3.06;84.25
61128;BME280;47013;42.664;23.242;2023-03-16T11:52:29;93694.28;;;2.93;85.04
61128;BME280;47013;42.664;23.242;2023-03-16T11:55:09;93695.47;;;2.96;84.96
61128;BME280;47013;42.664;23.242;2023-03-16T12:06:39;93702.28;;;2.90;83.64
61128;BME280;47013;42.664;23.242;2023-03-16T12:12:16;93707.06;;;3.04;85.47
61128;BME280;47013;42.664;23.242;2023-03-16T12:15:02;93709.44;;;3.12;86.58
61128;BME280;47013;42.664;23.242;2023-03-16T12:17:34;93711.09;;;3.20;84.68
61128;BME280;47013;42.664;23.242;2023-03-16T12:20:26;93713.53;;;3.03;82.98
61128;BME280;47013;42.664;23.242;2023-03-16T12:23:04;93714.72;;;3.05;83.46
61128;BME280;47013;42.664;23.242;2023-03-16T12:25:35;93712.78;;;3.02;83.38
61128;BME280;47013;42.664;23.242;2023-03-16T12:28:05;93717.75;;;3.04;84.37
61128;BME280;47013;42.664;23.242;2023-03-16T12:30:52;93714.34;;;3.07;83.36
61128;BME280;47013;42.664;23.242;2023-03-16T12:47:22;93735.22;;;2.67;84.86
61128;BME280;47013;42.664;23.242;2023-03-16T12:49:52;93739.41;;;2.65;86.23
61128;BME280;47013;42.664;23.242;2023-03-16T12:52:18;93739.41;;;2.65;87.82
61128;BME280;47013;42.664;23.242;2023-03-16T12:54:52;93737.13;;;2.67;88.84
61128;BME280;47013;42.664;23.242;2023-03-16T12:57:23;93746.94;;;2.59;89.91
61128;BME280;47013;42.664;23.242;2023-03-16T12:59:54;93738.91;;;2.59;91.32
61128;BME280;47013;42.664;23.242;2023-03-16T13:02:30;93755.34;;;2.58;90.58
61128;BME280;47013;42.664;23.242;2023-03-16T13:05:01;93751.97;;;2.61;91.17
61128;BME280;47013;42.664;23.242;2023-03-16T13:07:32;93751.47;;;2.55;90.05
61128;BME280;47013;42.664;23.242;2023-03-16T13:10:02;93759.16;;;2.57;91.00
61128;BME280;47013;42.664;23.242;2023-03-16T13:12:33;93748.81;;;2.55;91.77
61128;BME280;47013;42.664;23.242;2023-03-16T13:15:28;93753.06;;;2.60;90.45
61128;BME280;47013;42.664;23.242;2023-03-16T13:18:20;93755.06;;;2.63;89.93
61128;BME280;47013;42.664;23.242;2023-03-16T13:21:00;93762.00;;;2.67;90.40
61128;BME280;47013;42.664;23.242;2023-03-16T13:23:59;93754.84;;;2.75;91.59
61128;BME280;47013;42.664;23.242;2023-03-16T13:26:41;93756.75;;;2.75;91.24
61128;BME280;47013;42.664;23.242;2023-03-16T13:29:27;93761.44;;;2.81;91.03
61128;BME280;47013;42.664;23.242;2023-03-16T13:31:57;93756.66;;;2.94;90.67
61128;BME280;47013;42.664;23.242;2023-03-16T13:34:30;93765.41;;;2.91;91.13
61128;BME280;47013;42.664;23.242;2023-03-16T13:36:57;93759.69;;;2.92;90.13
61128;BME280;47013;42.664;23.242;2023-03-16T13:39:25;93763.69;;;3.06;93.39
61128;BME280;47013;42.664;23.242;2023-03-16T13:41:56;93766.50;;;3.13;90.31
61128;BME280;47013;42.664;23.242;2023-03-16T13:44:24;93767.75;;;3.22;90.65
61128;BME280;47013;42.664;23.242;2023-03-16T13:46:50;93766.31;;;3.29;89.66
61128;BME280;47013;42.664;23.242;2023-03-16T13:49:17;93769.03;;;3.32;89.56
61128;BME280;47013;42.664;23.242;2023-03-16T13:51:43;93768.72;;;3.37;90.00
61128;BME280;47013;42.664;23.242;2023-03-16T13:54:40;93775.31;;;3.43;89.43
61128;BME280;47013;42.664;23.242;2023-03-16T13:57:10;93778.00;;;3.43;89.49
61128;BME280;47013;42.664;23.242;2023-03-16T13:59:36;93778.03;;;3.47;89.12
61128;BME280;47013;42.664;23.242;2023-03-16T14:02:02;93778.78;;;3.47;89.24
61128;BME280;47013;42.664;23.242;2023-03-16T14:04:30;93779.38;;;3.34;88.95
61128;BME280;47013;42.664;23.242;2023-03-16T14:07:01;93781.44;;;3.14;88.32
61128;BME280;47013;42.664;23.242;2023-03-16T14:09:30;93781.34;;;3.10;87.26
61128;BME280;47013;42.664;23.242;2023-03-16T14:11:57;93789.81;;;2.86;90.09